createdAt,value
2022-11-04T00:02:25.748Z,8.51
2022-11-04T00:04:59.006Z,8.53
2022-11-04T00:07:48.833Z,8.54
2022-11-04T00:10:41.559Z,8.51
2022-11-04T00:13:13.707Z,8.50
2022-11-04T00:16:03.462Z,8.48
2022-11-04T00:18:36.475Z,8.47
2022-11-04T00:21:26.435Z,8.46
2022-11-04T00:24:16.267Z,8.44
2022-11-04T00:27:06.458Z,8.48
2022-11-04T00:29:38.604Z,8.49
2022-11-04T00:32:28.895Z,8.52
2022-11-04T00:35:01.011Z,8.54
2022-11-04T00:37:33.181Z,8.56
2022-11-04T00:40:05.707Z,8.53
2022-11-04T00:42:37.900Z,8.53
2022-11-04T00:45:11.830Z,8.53
2022-11-04T00:47:43.977Z,8.53
2022-11-04T00:50:16.376Z,8.53
2022-11-04T00:52:48.441Z,8.55
2022-11-04T00:55:20.612Z,8.62
2022-11-04T00:57:52.726Z,8.66
2022-11-04T01:00:24.920Z,8.70
2022-11-04T01:02:57.192Z,8.73
2022-11-04T01:05:29.463Z,8.75
2022-11-04T01:08:01.501Z,8.74
2022-11-04T01:10:35.948Z,8.74
2022-11-04T01:13:08.276Z,8.74
2022-11-04T01:15:40.818Z,8.74
2022-11-04T01:18:12.939Z,8.72
2022-11-04T01:20:45.167Z,8.72
2022-11-04T01:23:17.379Z,8.78
2022-11-04T01:25:49.628Z,8.80
2022-11-04T01:28:21.873Z,8.82
2022-11-04T01:30:54.171Z,8.83
2022-11-04T01:33:26.513Z,8.82
2022-11-04T01:36:02.118Z,8.82
2022-11-04T01:38:34.510Z,8.82
2022-11-04T01:41:07.508Z,8.80
2022-11-04T01:43:52.342Z,8.79
2022-11-04T01:46:34.157Z,8.81
2022-11-04T01:49:12.726Z,8.87
2022-11-04T01:51:46.096Z,8.90
2022-11-04T01:54:19.262Z,8.91
2022-11-04T01:56:52.224Z,8.92
2022-11-04T01:59:29.102Z,8.91
2022-11-04T02:02:01.734Z,8.90
2022-11-04T02:04:34.900Z,8.89
2022-11-04T02:07:10.063Z,8.89
2022-11-04T02:09:43.587Z,8.88
2022-11-04T02:12:34.040Z,8.88
2022-11-04T02:15:07.440Z,8.89
2022-11-04T02:18:01.683Z,8.96
2022-11-04T02:20:45.491Z,8.97
2022-11-04T02:23:50.343Z,8.98
2022-11-04T02:26:48.988Z,9.00
2022-11-04T02:29:39.536Z,8.98
2022-11-04T02:32:20.096Z,8.95
2022-11-04T02:35:05.097Z,8.92
2022-11-04T02:37:43.500Z,8.88
2022-11-04T02:40:26.560Z,8.84
2022-11-04T02:43:02.715Z,8.84
2022-11-04T02:45:41.262Z,8.89
2022-11-04T02:48:21.258Z,8.88
2022-11-04T02:50:57.812Z,8.87
2022-11-04T02:53:34.915Z,8.88
2022-11-04T02:56:08.690Z,8.87
2022-11-04T02:58:47.366Z,8.85
2022-11-04T03:01:22.634Z,8.83
2022-11-04T03:04:02.970Z,8.82
2022-11-04T03:06:37.955Z,8.79
2022-11-04T03:09:12.005Z,8.78
2022-11-04T03:11:49.511Z,8.83
2022-11-04T03:14:26.102Z,8.83
2022-11-04T03:17:04.008Z,8.83
2022-11-04T03:19:43.904Z,8.85
2022-11-04T03:22:19.863Z,8.87
2022-11-04T03:24:53.185Z,8.84
2022-11-04T03:27:32.498Z,8.81
2022-11-04T03:30:09.295Z,8.78
2022-11-04T03:32:48.019Z,8.75
2022-11-04T03:35:20.902Z,8.72
2022-11-04T03:37:53.208Z,8.68
2022-11-04T03:40:25.890Z,8.67
2022-11-04T03:43:01.042Z,8.75
2022-11-04T03:45:33.445Z,8.76
2022-11-04T03:48:06.442Z,8.75
2022-11-04T03:50:44.280Z,8.75
2022-11-04T03:53:18.783Z,8.77
2022-11-04T03:56:04.746Z,8.78
2022-11-04T03:58:46.051Z,8.78
2022-11-04T04:01:29.657Z,8.75
2022-11-04T04:04:08.570Z,8.72
2022-11-04T04:06:42.780Z,8.69
2022-11-04T04:09:22.483Z,8.69
2022-11-04T04:12:02.452Z,8.75
2022-11-04T04:14:40.969Z,8.76
2022-11-04T04:17:20.181Z,8.78
2022-11-04T04:19:56.116Z,8.80
2022-11-04T04:22:32.014Z,8.78
2022-11-04T04:25:26.865Z,8.75
2022-11-04T04:28:01.467Z,8.74
2022-11-04T04:30:33.889Z,8.72
2022-11-04T04:33:09.462Z,8.71
2022-11-04T04:35:45.266Z,8.72
2022-11-04T04:38:40.448Z,8.79
2022-11-04T04:41:35.656Z,8.80
2022-11-04T04:44:32.690Z,8.79
2022-11-04T04:47:07.001Z,8.80
2022-11-04T04:49:50.202Z,8.78
2022-11-04T04:52:23.372Z,8.78
2022-11-04T04:54:55.521Z,8.77
2022-11-04T04:57:27.680Z,8.75
2022-11-04T04:59:59.823Z,8.74
2022-11-04T05:02:31.742Z,8.75
2022-11-04T05:05:04.606Z,8.81
2022-11-04T05:07:36.815Z,8.82
2022-11-04T05:10:11.733Z,8.84
2022-11-04T05:12:59.813Z,8.85
2022-11-04T05:15:32.593Z,8.83
2022-11-04T05:18:05.108Z,8.82
2022-11-04T05:20:40.350Z,8.80
2022-11-04T05:23:13.816Z,8.78
2022-11-04T05:25:46.362Z,8.77
2022-11-04T05:28:18.556Z,8.78
2022-11-04T05:30:50.754Z,8.84
2022-11-04T05:33:22.880Z,8.85
2022-11-04T05:35:54.944Z,8.88
2022-11-04T05:38:27.283Z,8.90
2022-11-04T05:41:01.726Z,8.89
2022-11-04T05:43:34.229Z,8.88
2022-11-04T05:46:07.010Z,8.88
2022-11-04T05:48:40.672Z,8.86
2022-11-04T05:51:15.929Z,8.84
2022-11-04T05:53:46.511Z,8.81
2022-11-04T05:56:18.961Z,8.76
2022-11-04T05:58:51.229Z,8.76
2022-11-04T06:01:36.114Z,8.81
2022-11-04T06:04:15.733Z,8.81
2022-11-04T06:06:48.424Z,8.83
2022-11-04T06:09:20.580Z,8.87
2022-11-04T06:11:52.740Z,8.89
2022-11-04T06:14:25.610Z,8.88
2022-11-04T06:16:57.766Z,8.88
2022-11-04T06:19:30.057Z,8.89
2022-11-04T06:22:04.066Z,8.87
2022-11-04T06:24:36.159Z,8.84
2022-11-04T06:27:08.736Z,8.81
2022-11-04T06:29:41.851Z,8.81
2022-11-04T06:32:15.915Z,8.87
2022-11-04T06:34:48.183Z,8.89
2022-11-04T06:37:20.300Z,8.89
2022-11-04T06:39:52.351Z,8.89
2022-11-04T06:42:26.045Z,8.87
2022-11-04T06:44:58.140Z,8.86
2022-11-04T06:47:30.284Z,8.86
2022-11-04T06:50:02.339Z,8.85
2022-11-04T06:52:39.456Z,8.86
2022-11-04T06:55:14.233Z,8.84
2022-11-04T06:57:46.332Z,8.86
2022-11-04T07:00:19.507Z,8.87
2022-11-04T07:02:51.712Z,8.90
2022-11-04T07:05:24.084Z,8.93
2022-11-04T07:07:56.792Z,8.94
2022-11-04T07:10:29.137Z,8.91
2022-11-04T07:13:01.305Z,8.88
2022-11-04T07:15:33.578Z,8.87
2022-11-04T07:18:07.225Z,8.87
2022-11-04T07:20:40.320Z,8.89
2022-11-04T07:23:12.411Z,8.90
2022-11-04T07:25:44.553Z,8.97
2022-11-04T07:28:16.742Z,8.99
2022-11-04T07:30:48.865Z,9.01
2022-11-04T07:33:20.982Z,9.00
2022-11-04T07:35:57.073Z,9.00
2022-11-04T07:38:30.481Z,9.03
2022-11-04T07:41:03.630Z,9.03
2022-11-04T07:43:35.720Z,9.01
2022-11-04T07:46:11.484Z,8.98
2022-11-04T07:48:43.565Z,8.97
2022-11-04T07:51:18.268Z,9.02
2022-11-04T07:53:50.902Z,9.06
2022-11-04T07:56:24.245Z,9.08
2022-11-04T07:58:56.641Z,9.12
2022-11-04T08:01:28.808Z,9.14
2022-11-04T08:04:01.917Z,9.12
2022-11-04T08:06:34.120Z,9.10
2022-11-04T08:09:06.299Z,9.08
2022-11-04T08:11:38.506Z,9.07
2022-11-04T08:14:11.851Z,9.05
2022-11-04T08:16:43.893Z,9.03
2022-11-04T08:19:16.648Z,9.05
2022-11-04T08:21:48.769Z,9.12
2022-11-04T08:24:21.164Z,9.13
2022-11-04T08:26:53.437Z,9.14
2022-11-04T08:29:25.756Z,9.14
2022-11-04T08:31:58.059Z,9.17
2022-11-04T08:34:30.481Z,9.16
2022-11-04T08:37:02.645Z,9.16
2022-11-04T08:39:34.765Z,9.19
2022-11-04T08:42:06.957Z,9.21
2022-11-04T08:44:40.712Z,9.21
2022-11-04T08:47:12.829Z,9.21
2022-11-04T08:49:44.920Z,9.22
2022-11-04T08:52:17.266Z,9.28
2022-11-04T08:54:52.288Z,9.33
2022-11-04T08:57:28.363Z,9.36
2022-11-04T09:00:00.735Z,9.39
2022-11-04T09:02:32.903Z,9.40
2022-11-04T09:05:05.308Z,9.40
2022-11-04T09:07:39.160Z,9.40
2022-11-04T09:10:12.350Z,9.40
2022-11-04T09:12:45.061Z,9.37
2022-11-04T09:15:17.430Z,9.31
2022-11-04T09:17:49.573Z,9.29
2022-11-04T09:20:21.809Z,9.34
2022-11-04T09:22:54.484Z,9.35
2022-11-04T09:25:27.128Z,9.35
2022-11-04T09:27:59.654Z,9.35
2022-11-04T09:30:31.823Z,9.37
2022-11-04T09:33:04.144Z,9.38
2022-11-04T09:35:36.235Z,9.34
2022-11-04T09:38:08.391Z,9.34
2022-11-04T09:40:40.699Z,9.32
2022-11-04T09:43:26.513Z,9.32
2022-11-04T09:45:59.987Z,9.34
2022-11-04T09:48:36.942Z,9.41
2022-11-04T09:51:20.939Z,9.44
2022-11-04T09:54:04.948Z,9.46
2022-11-04T09:56:40.198Z,9.48
2022-11-04T09:59:16.438Z,9.52
2022-11-04T10:01:54.402Z,9.56
2022-11-04T10:04:34.609Z,9.53
2022-11-04T10:07:22.135Z,9.52
2022-11-04T10:10:04.460Z,9.52
2022-11-04T10:13:04.691Z,9.52
2022-11-04T10:15:50.828Z,9.55
2022-11-04T10:18:35.158Z,9.59
2022-11-04T10:21:20.566Z,9.59
2022-11-04T10:24:05.940Z,9.59
2022-11-04T10:26:44.946Z,9.61
2022-11-04T10:29:23.285Z,9.61
2022-11-04T10:31:59.493Z,9.63
2022-11-04T10:34:38.477Z,9.62
2022-11-04T10:37:13.944Z,9.65
2022-11-04T10:39:48.178Z,9.63
2022-11-04T10:42:22.839Z,9.62
2022-11-04T10:44:55.439Z,9.69
2022-11-04T10:47:37.033Z,9.70
2022-11-04T10:50:38.047Z,9.71
2022-11-04T10:53:15.992Z,9.73
2022-11-04T10:55:58.978Z,9.77
2022-11-04T10:58:36.001Z,9.77
2022-11-04T11:01:27.230Z,9.79
2022-11-04T11:04:00.644Z,9.82
2022-11-04T11:06:34.065Z,9.87
2022-11-04T11:09:28.609Z,9.97
2022-11-04T11:12:09.869Z,10.17
2022-11-04T11:14:50.506Z,10.32
2022-11-04T11:17:37.293Z,10.42
2022-11-04T11:20:22.586Z,10.44
2022-11-04T11:22:54.379Z,10.49
2022-11-04T11:25:30.066Z,10.54
2022-11-04T11:28:04.602Z,10.59
2022-11-04T11:30:44.120Z,10.60
2022-11-04T11:33:22.539Z,10.57
2022-11-04T11:35:57.699Z,10.58
2022-11-04T11:38:31.752Z,10.65
2022-11-04T11:41:24.470Z,10.65
2022-11-04T11:44:00.797Z,10.63
2022-11-04T11:46:35.456Z,10.62
2022-11-04T11:49:24.001Z,10.58
2022-11-04T11:51:56.527Z,10.56
2022-11-04T11:54:37.816Z,10.58
2022-11-04T11:57:25.554Z,10.58
2022-11-04T12:03:01.707Z,10.52
2022-11-04T12:11:50.116Z,10.83
2022-11-04T12:14:32.678Z,11.03
2022-11-04T12:17:17.836Z,11.20
2022-11-04T12:20:08.857Z,11.31
2022-11-04T12:22:54.259Z,11.58
2022-11-04T12:25:36.472Z,12.04
2022-11-04T12:28:22.512Z,12.46
2022-11-04T12:31:07.183Z,12.80
2022-11-04T12:33:46.871Z,12.86
2022-11-04T12:36:33.144Z,12.77
2022-11-04T12:39:23.230Z,12.60
2022-11-04T12:42:20.707Z,12.39
2022-11-04T12:45:02.382Z,12.14
2022-11-04T12:47:38.941Z,11.92
2022-11-04T12:50:26.007Z,11.73
2022-11-04T12:53:18.440Z,11.56
2022-11-04T12:56:01.489Z,11.40
2022-11-04T12:58:46.253Z,11.36
2022-11-04T13:01:23.162Z,11.32
2022-11-04T13:04:00.777Z,11.26
2022-11-04T13:06:39.604Z,11.20
2022-11-04T13:09:16.508Z,11.12
2022-11-04T13:11:54.038Z,11.03
2022-11-04T13:14:29.763Z,10.98
2022-11-04T13:17:06.622Z,10.93
2022-11-04T13:19:44.931Z,10.88
2022-11-04T13:22:21.865Z,10.81
2022-11-04T13:24:58.956Z,10.75
2022-11-04T13:27:37.086Z,10.74
2022-11-04T13:30:22.447Z,10.77
2022-11-04T13:32:56.815Z,10.75
2022-11-04T13:35:36.295Z,10.73
2022-11-04T13:38:13.334Z,10.72
2022-11-04T13:40:54.824Z,10.72
2022-11-04T13:43:39.532Z,10.72
2022-11-04T13:46:24.956Z,10.72
2022-11-04T13:49:02.682Z,10.71
2022-11-04T13:51:44.608Z,10.69
2022-11-04T13:54:32.408Z,10.69
2022-11-04T13:57:12.340Z,10.73
2022-11-04T14:00:06.215Z,10.83
2022-11-04T14:02:44.075Z,10.86
2022-11-04T14:05:47.879Z,10.90
2022-11-04T14:08:20.153Z,10.91
2022-11-04T14:11:17.791Z,10.90
2022-11-04T14:14:18.118Z,10.89
2022-11-04T14:16:51.006Z,10.88
2022-11-04T14:20:11.910Z,10.86
2022-11-04T14:22:54.634Z,10.84
2022-11-04T14:25:36.683Z,10.81
2022-11-04T14:28:28.596Z,10.78
2022-11-04T14:31:02.612Z,10.82
2022-11-04T14:33:42.182Z,10.81
2022-11-04T14:36:30.576Z,10.79
2022-11-04T14:39:22.688Z,10.76
2022-11-04T14:42:01.921Z,10.73
2022-11-04T14:44:36.612Z,10.67
2022-11-04T14:47:19.137Z,10.62
2022-11-04T14:49:53.619Z,10.60
2022-11-04T14:52:30.192Z,10.58
2022-11-04T14:55:09.198Z,10.54
2022-11-04T14:57:43.486Z,10.53
2022-11-04T15:00:28.402Z,10.55
2022-11-04T15:03:41.204Z,10.55
2022-11-04T15:06:09.718Z,10.54
2022-11-04T15:08:44.893Z,10.55
2022-11-04T15:11:39.976Z,10.56
2022-11-04T15:14:22.206Z,10.57
2022-11-04T15:16:56.981Z,10.54
2022-11-04T15:19:30.381Z,10.52
2022-11-04T15:22:05.396Z,10.49
2022-11-04T15:24:38.122Z,10.46
2022-11-04T15:27:13.953Z,10.44
2022-11-04T15:29:56.262Z,10.41
2022-11-04T15:32:29.116Z,10.39
2022-11-04T15:35:02.155Z,10.37
2022-11-04T15:37:45.946Z,10.41
2022-11-04T15:40:18.629Z,10.40
2022-11-04T15:42:51.948Z,10.38
2022-11-04T15:45:32.180Z,10.37
2022-11-04T15:48:39.960Z,10.36
2022-11-04T15:51:20.574Z,10.32
2022-11-04T15:53:56.583Z,10.28
2022-11-04T15:56:31.573Z,10.26
2022-11-04T15:59:09.724Z,10.22
2022-11-04T16:01:50.184Z,10.18
2022-11-04T16:04:25.324Z,10.16
2022-11-04T16:07:22.995Z,10.21
2022-11-04T16:09:56.439Z,10.19
2022-11-04T16:12:36.379Z,10.18
2022-11-04T16:15:22.766Z,10.19
2022-11-04T16:17:54.857Z,10.24
2022-11-04T16:20:27.263Z,10.23
2022-11-04T16:23:01.229Z,10.23
2022-11-04T16:25:36.538Z,10.25
2022-11-04T16:28:17.916Z,10.22
2022-11-04T16:31:01.570Z,10.17
2022-11-04T16:33:33.859Z,10.14
2022-11-04T16:36:13.599Z,10.15
2022-11-04T16:38:45.689Z,10.21
2022-11-04T16:41:17.928Z,10.22
2022-11-04T16:43:50.821Z,10.23
2022-11-04T16:46:23.609Z,10.24
2022-11-04T16:48:55.763Z,10.22
2022-11-04T16:51:27.812Z,10.18
2022-11-04T16:53:59.950Z,10.17
2022-11-04T16:56:32.191Z,10.16
2022-11-04T16:59:04.285Z,10.14
2022-11-04T17:01:40.091Z,10.12
2022-11-04T17:04:12.336Z,10.12
2022-11-04T17:06:46.429Z,10.18
2022-11-04T17:09:24.122Z,10.18
2022-11-04T17:11:56.435Z,10.19
2022-11-04T17:14:28.587Z,10.22
2022-11-04T17:17:00.782Z,10.19
2022-11-04T17:19:34.797Z,10.18
2022-11-04T17:22:09.496Z,10.15
2022-11-04T17:24:41.662Z,10.14
2022-11-04T17:27:13.882Z,10.11
2022-11-04T17:29:46.102Z,10.09
2022-11-04T17:32:18.398Z,10.08
2022-11-04T17:34:50.904Z,10.13
2022-11-04T17:37:22.991Z,10.15
2022-11-04T17:39:55.185Z,10.16
2022-11-04T17:42:47.265Z,10.17
2022-11-04T17:45:19.558Z,10.14
2022-11-04T17:47:51.624Z,10.14
2022-11-04T17:50:24.005Z,10.14
2022-11-04T17:52:56.378Z,10.13
2022-11-04T17:55:28.546Z,10.12
2022-11-04T17:58:00.715Z,10.09
2022-11-04T18:00:32.882Z,10.09
2022-11-04T18:03:06.926Z,10.14
2022-11-04T18:05:39.318Z,10.16
2022-11-04T18:08:11.666Z,10.20
2022-11-04T18:10:43.782Z,10.22
2022-11-04T18:13:15.925Z,10.24
2022-11-04T18:15:48.169Z,10.23
2022-11-04T18:28:19.512Z,10.10
2022-11-04T18:30:51.932Z,10.07
2022-11-04T18:33:24.060Z,10.06
2022-11-04T18:35:56.532Z,10.10
2022-11-04T18:38:28.697Z,10.11
2022-11-04T18:41:00.971Z,10.13
2022-11-04T18:43:33.263Z,10.15
2022-11-04T18:46:11.782Z,10.16
2022-11-04T18:48:44.600Z,10.14
2022-11-04T18:51:20.173Z,10.14
2022-11-04T18:53:53.476Z,10.14
2022-11-04T18:56:26.136Z,10.14
2022-11-04T18:58:58.305Z,10.13
2022-11-04T19:01:32.688Z,10.10
2022-11-04T19:04:05.125Z,10.08
2022-11-04T19:06:42.976Z,10.13
2022-11-04T19:09:45.515Z,10.16
2022-11-04T19:12:28.585Z,10.16
2022-11-04T19:15:00.749Z,10.16
2022-11-04T19:17:33.019Z,10.15
2022-11-04T19:20:11.372Z,10.13
2022-11-04T19:22:44.524Z,10.11
2022-11-04T19:25:16.768Z,10.08
2022-11-04T19:28:26.660Z,10.06
2022-11-04T19:31:01.977Z,10.03
2022-11-04T19:33:42.022Z,10.03
2022-11-04T19:36:17.874Z,10.08
2022-11-04T19:38:55.409Z,10.10
2022-11-04T19:41:48.995Z,10.10
2022-11-04T19:44:23.486Z,10.12
2022-11-04T19:46:57.162Z,10.07
2022-11-04T19:49:31.764Z,10.06
2022-11-04T19:52:06.130Z,10.05
2022-11-04T19:54:46.966Z,10.03
2022-11-04T19:57:23.915Z,10.03
2022-11-04T20:00:06.866Z,10.02
2022-11-04T20:02:50.940Z,10.03
2022-11-04T20:05:27.216Z,10.07
2022-11-04T20:08:06.197Z,10.07
2022-11-04T20:10:42.396Z,10.06
2022-11-04T20:13:40.560Z,10.08
2022-11-04T20:16:19.871Z,10.08
2022-11-04T20:18:56.789Z,10.03
2022-11-04T20:21:30.730Z,10.02
2022-11-04T20:24:05.362Z,10.01
2022-11-04T20:26:38.911Z,9.98
2022-11-04T20:29:11.669Z,9.95
2022-11-04T20:31:43.785Z,9.94
2022-11-04T20:34:17.010Z,10.01
2022-11-04T20:36:49.299Z,10.03
2022-11-04T20:39:22.723Z,10.05
2022-11-04T20:41:54.995Z,10.05
2022-11-04T20:44:27.192Z,10.04
2022-11-04T20:46:59.335Z,10.01
2022-11-04T20:49:31.703Z,9.96
2022-11-04T20:52:03.921Z,9.94
2022-11-04T20:54:36.245Z,9.89
2022-11-04T20:57:08.694Z,9.87
2022-11-04T20:59:40.937Z,9.90
2022-11-04T21:02:14.525Z,9.90
2022-11-04T21:04:46.837Z,9.88
2022-11-04T21:07:20.151Z,9.89
2022-11-04T21:09:52.371Z,9.92
2022-11-04T21:12:24.543Z,9.92
2022-11-04T21:14:56.863Z,9.93
2022-11-04T21:17:29.060Z,9.92
2022-11-04T21:20:01.496Z,9.93
2022-11-04T21:22:33.908Z,9.89
2022-11-04T21:25:06.729Z,9.84
2022-11-04T21:27:39.020Z,9.79
2022-11-04T21:30:13.383Z,9.79
2022-11-04T21:32:45.493Z,9.85
2022-11-04T21:35:17.824Z,9.85
2022-11-04T21:37:50.043Z,9.84
2022-11-04T21:40:22.424Z,9.79
2022-11-04T21:42:54.764Z,9.77
2022-11-04T21:45:27.729Z,9.76
2022-11-04T21:47:59.944Z,9.74
2022-11-04T21:50:32.695Z,9.76
2022-11-04T21:53:05.226Z,9.79
2022-11-04T21:55:37.515Z,9.79
2022-11-04T21:58:09.988Z,9.75
2022-11-04T22:00:42.554Z,9.70
2022-11-04T22:03:15.126Z,9.67
2022-11-04T22:05:47.475Z,9.68
2022-11-04T22:08:21.205Z,9.72
2022-11-04T22:10:54.191Z,9.72
2022-11-04T22:13:26.821Z,9.71
2022-11-04T22:15:59.195Z,9.71
2022-11-04T22:18:33.593Z,9.71
2022-11-04T22:21:08.220Z,9.73
2022-11-04T22:23:40.977Z,9.72
2022-11-04T22:26:15.469Z,9.75
2022-11-04T22:28:48.180Z,9.71
2022-11-04T22:31:23.583Z,9.69
2022-11-04T22:33:56.326Z,9.66
2022-11-04T22:36:28.600Z,9.64
2022-11-04T22:39:01.202Z,9.65
2022-11-04T22:41:35.785Z,9.63
2022-11-04T22:44:09.096Z,9.60
2022-11-04T22:46:41.493Z,9.58
2022-11-04T22:49:14.625Z,9.58
2022-11-04T22:51:46.772Z,9.58
2022-11-04T22:54:19.384Z,9.60
2022-11-04T22:56:51.577Z,9.63
2022-11-04T22:59:23.888Z,9.65
2022-11-04T23:01:56.237Z,9.59
2022-11-04T23:04:28.727Z,9.52
2022-11-04T23:07:00.888Z,9.53
2022-11-04T23:09:33.900Z,9.52
2022-11-04T23:12:24.142Z,9.56
2022-11-04T23:15:14.219Z,9.57
2022-11-04T23:18:04.192Z,9.57
2022-11-04T23:20:36.436Z,9.56
2022-11-04T23:23:26.191Z,9.57
2022-11-04T23:25:58.303Z,9.58
2022-11-04T23:28:48.129Z,9.57
2022-11-04T23:31:20.227Z,9.58
2022-11-04T23:34:09.962Z,9.58
2022-11-04T23:36:59.923Z,9.57
2022-11-04T23:39:32.168Z,9.50
2022-11-04T23:42:19.571Z,9.45
2022-11-04T23:45:11.935Z,9.46
2022-11-04T23:48:04.227Z,9.45
2022-11-04T23:50:54.954Z,9.44
2022-11-04T23:53:45.062Z,9.46
2022-11-04T23:56:35.604Z,9.48
2022-11-04T23:59:27.648Z,9.47
